sensor_id;sensor_type;location;lat;lon;timestamp;temperature;humidity
67557;DHT22;54387;53.526;49.300;2022-11-23T00:00:11;2.40;64.80
67557;DHT22;54387;53.526;49.300;2022-11-23T00:02:37;2.40;64.90
67557;DHT22;54387;53.526;49.300;2022-11-23T00:05:03;2.40;64.90
67557;DHT22;54387;53.526;49.300;2022-11-23T00:07:29;2.40;64.90
67557;DHT22;54387;53.526;49.300;2022-11-23T00:09:55;2.40;65.00
67557;DHT22;54387;53.526;49.300;2022-11-23T00:12:21;2.30;65.10
67557;DHT22;54387;53.526;49.300;2022-11-23T00:14:47;2.30;65.10
67557;DHT22;54387;53.526;49.300;2022-11-23T00:17:13;2.30;65.20
67557;DHT22;54387;53.526;49.300;2022-11-23T00:19:39;2.30;65.40
67557;DHT22;54387;53.526;49.300;2022-11-23T00:22:05;2.20;65.50
67557;DHT22;54387;53.526;49.300;2022-11-23T00:24:31;2.20;65.60
67557;DHT22;54387;53.526;49.300;2022-11-23T00:26:57;2.20;65.70
67557;DHT22;54387;53.526;49.300;2022-11-23T00:29:23;2.30;65.70
67557;DHT22;54387;53.526;49.300;2022-11-23T00:31:49;2.30;65.70
67557;DHT22;54387;53.526;49.300;2022-11-23T00:34:15;2.30;66.30
67557;DHT22;54387;53.526;49.300;2022-11-23T00:36:41;2.30;65.70
67557;DHT22;54387;53.526;49.300;2022-11-23T00:39:07;2.30;65.80
67557;DHT22;54387;53.526;49.300;2022-11-23T00:41:33;2.30;65.80
67557;DHT22;54387;53.526;49.300;2022-11-23T00:43:59;2.30;65.90
67557;DHT22;54387;53.526;49.300;2022-11-23T00:46:28;2.40;66.00
67557;DHT22;54387;53.526;49.300;2022-11-23T00:48:55;2.30;65.90
67557;DHT22;54387;53.526;49.300;2022-11-23T00:51:22;2.30;66.00
67557;DHT22;54387;53.526;49.300;2022-11-23T00:53:48;2.30;66.10
67557;DHT22;54387;53.526;49.300;2022-11-23T00:56:14;2.30;66.30
67557;DHT22;54387;53.526;49.300;2022-11-23T00:58:46;2.30;66.30
67557;DHT22;54387;53.526;49.300;2022-11-23T01:01:13;2.30;66.40
67557;DHT22;54387;53.526;49.300;2022-11-23T01:03:40;2.30;66.40
67557;DHT22;54387;53.526;49.300;2022-11-23T01:06:07;2.30;66.40
67557;DHT22;54387;53.526;49.300;2022-11-23T01:08:34;2.30;66.40
67557;DHT22;54387;53.526;49.300;2022-11-23T01:11:01;2.30;66.50
67557;DHT22;54387;53.526;49.300;2022-11-23T01:13:28;2.30;66.50
67557;DHT22;54387;53.526;49.300;2022-11-23T01:15:54;2.30;66.50
67557;DHT22;54387;53.526;49.300;2022-11-23T01:18:20;2.30;66.60
67557;DHT22;54387;53.526;49.300;2022-11-23T01:20:46;2.30;66.60
67557;DHT22;54387;53.526;49.300;2022-11-23T01:23:13;2.30;66.80
67557;DHT22;54387;53.526;49.300;2022-11-23T01:25:39;2.30;66.80
67557;DHT22;54387;53.526;49.300;2022-11-23T01:28:05;2.30;66.80
67557;DHT22;54387;53.526;49.300;2022-11-23T01:30:31;2.30;66.80
67557;DHT22;54387;53.526;49.300;2022-11-23T01:32:59;2.30;66.80
67557;DHT22;54387;53.526;49.300;2022-11-23T01:35:25;2.30;66.80
67557;DHT22;54387;53.526;49.300;2022-11-23T01:37:51;2.30;66.90
67557;DHT22;54387;53.526;49.300;2022-11-23T01:40:17;2.30;67.00
67557;DHT22;54387;53.526;49.300;2022-11-23T01:42:56;2.30;66.90
67557;DHT22;54387;53.526;49.300;2022-11-23T01:45:33;2.40;67.00
67557;DHT22;54387;53.526;49.300;2022-11-23T01:48:00;2.30;67.00
67557;DHT22;54387;53.526;49.300;2022-11-23T01:50:27;2.30;67.00
67557;DHT22;54387;53.526;49.300;2022-11-23T01:52:53;2.40;67.10
67557;DHT22;54387;53.526;49.300;2022-11-23T01:55:19;2.40;67.20
67557;DHT22;54387;53.526;49.300;2022-11-23T01:57:45;2.40;67.10
67557;DHT22;54387;53.526;49.300;2022-11-23T02:00:12;2.40;67.20
67557;DHT22;54387;53.526;49.300;2022-11-23T02:02:39;2.40;67.20
67557;DHT22;54387;53.526;49.300;2022-11-23T02:05:07;2.50;67.30
67557;DHT22;54387;53.526;49.300;2022-11-23T02:07:33;2.50;67.30
67557;DHT22;54387;53.526;49.300;2022-11-23T02:09:59;2.50;67.20
67557;DHT22;54387;53.526;49.300;2022-11-23T02:12:26;2.50;67.20
67557;DHT22;54387;53.526;49.300;2022-11-23T02:14:52;2.50;67.30
67557;DHT22;54387;53.526;49.300;2022-11-23T02:17:18;2.60;67.30
67557;DHT22;54387;53.526;49.300;2022-11-23T02:19:53;2.60;67.40
67557;DHT22;54387;53.526;49.300;2022-11-23T02:22:24;2.70;67.40
67557;DHT22;54387;53.526;49.300;2022-11-23T02:24:52;2.70;67.30
67557;DHT22;54387;53.526;49.300;2022-11-23T02:27:19;2.70;67.90
67557;DHT22;54387;53.526;49.300;2022-11-23T02:29:46;2.70;67.30
67557;DHT22;54387;53.526;49.300;2022-11-23T02:32:16;2.70;67.40
67557;DHT22;54387;53.526;49.300;2022-11-23T02:34:43;2.80;67.50
67557;DHT22;54387;53.526;49.300;2022-11-23T02:37:09;2.80;67.50
67557;DHT22;54387;53.526;49.300;2022-11-23T02:39:36;2.80;67.50
67557;DHT22;54387;53.526;49.300;2022-11-23T02:42:03;2.80;67.50
67557;DHT22;54387;53.526;49.300;2022-11-23T02:44:36;2.80;67.40
67557;DHT22;54387;53.526;49.300;2022-11-23T02:47:04;2.80;67.50
67557;DHT22;54387;53.526;49.300;2022-11-23T02:49:31;2.80;67.50
67557;DHT22;54387;53.526;49.300;2022-11-23T02:51:57;2.80;67.60
67557;DHT22;54387;53.526;49.300;2022-11-23T02:54:23;2.80;67.60
67557;DHT22;54387;53.526;49.300;2022-11-23T02:56:49;2.80;67.60
67557;DHT22;54387;53.526;49.300;2022-11-23T02:59:15;2.80;67.60
67557;DHT22;54387;53.526;49.300;2022-11-23T03:01:41;2.80;67.50
67557;DHT22;54387;53.526;49.300;2022-11-23T03:04:07;2.80;67.60
67557;DHT22;54387;53.526;49.300;2022-11-23T03:06:33;2.80;67.60
67557;DHT22;54387;53.526;49.300;2022-11-23T03:09:00;2.70;67.60
67557;DHT22;54387;53.526;49.300;2022-11-23T03:11:26;2.70;67.70
67557;DHT22;54387;53.526;49.300;2022-11-23T03:13:52;2.70;67.80
67557;DHT22;54387;53.526;49.300;2022-11-23T03:16:18;2.60;67.90
67557;DHT22;54387;53.526;49.300;2022-11-23T03:18:44;2.60;68.00
67557;DHT22;54387;53.526;49.300;2022-11-23T03:21:10;2.60;68.00
67557;DHT22;54387;53.526;49.300;2022-11-23T03:23:36;2.60;68.10
67557;DHT22;54387;53.526;49.300;2022-11-23T03:26:02;2.50;68.20
67557;DHT22;54387;53.526;49.300;2022-11-23T03:28:28;2.50;68.20
67557;DHT22;54387;53.526;49.300;2022-11-23T03:30:54;2.50;68.30
67557;DHT22;54387;53.526;49.300;2022-11-23T03:33:21;2.40;68.30
67557;DHT22;54387;53.526;49.300;2022-11-23T03:35:47;2.50;68.40
67557;DHT22;54387;53.526;49.300;2022-11-23T03:38:13;2.50;68.40
67557;DHT22;54387;53.526;49.300;2022-11-23T03:40:39;2.50;68.40
67557;DHT22;54387;53.526;49.300;2022-11-23T03:43:05;2.60;68.40
67557;DHT22;54387;53.526;49.300;2022-11-23T03:45:31;2.60;68.40
67557;DHT22;54387;53.526;49.300;2022-11-23T03:47:57;2.60;68.50
67557;DHT22;54387;53.526;49.300;2022-11-23T03:50:23;2.70;68.50
67557;DHT22;54387;53.526;49.300;2022-11-23T03:52:49;2.70;68.40
67557;DHT22;54387;53.526;49.300;2022-11-23T03:55:16;2.70;68.40
67557;DHT22;54387;53.526;49.300;2022-11-23T03:57:42;2.70;68.40
67557;DHT22;54387;53.526;49.300;2022-11-23T04:00:08;2.80;68.60
67557;DHT22;54387;53.526;49.300;2022-11-23T04:02:34;2.80;68.50
67557;DHT22;54387;53.526;49.300;2022-11-23T04:05:00;2.90;68.40
67557;DHT22;54387;53.526;49.300;2022-11-23T04:07:26;2.90;68.40
67557;DHT22;54387;53.526;49.300;2022-11-23T04:09:52;2.90;68.30
67557;DHT22;54387;53.526;49.300;2022-11-23T04:12:18;2.90;68.30
67557;DHT22;54387;53.526;49.300;2022-11-23T04:14:44;2.90;68.40
67557;DHT22;54387;53.526;49.300;2022-11-23T04:17:10;2.90;68.40
67557;DHT22;54387;53.526;49.300;2022-11-23T04:19:36;2.90;68.40
67557;DHT22;54387;53.526;49.300;2022-11-23T04:22:02;2.90;68.40
67557;DHT22;54387;53.526;49.300;2022-11-23T04:24:28;2.90;68.40
67557;DHT22;54387;53.526;49.300;2022-11-23T04:26:54;2.90;68.40
67557;DHT22;54387;53.526;49.300;2022-11-23T04:29:20;2.90;68.40
67557;DHT22;54387;53.526;49.300;2022-11-23T04:31:46;2.90;68.40
67557;DHT22;54387;53.526;49.300;2022-11-23T04:34:12;2.90;68.40
67557;DHT22;54387;53.526;49.300;2022-11-23T04:36:38;2.90;68.40
67557;DHT22;54387;53.526;49.300;2022-11-23T04:39:04;2.90;68.40
67557;DHT22;54387;53.526;49.300;2022-11-23T04:41:30;3.00;68.50
67557;DHT22;54387;53.526;49.300;2022-11-23T04:43:56;3.00;68.50
67557;DHT22;54387;53.526;49.300;2022-11-23T04:46:23;3.00;68.50
67557;DHT22;54387;53.526;49.300;2022-11-23T04:48:49;3.10;68.40
67557;DHT22;54387;53.526;49.300;2022-11-23T04:51:15;3.10;68.50
67557;DHT22;54387;53.526;49.300;2022-11-23T04:53:41;3.00;68.40
67557;DHT22;54387;53.526;49.300;2022-11-23T04:56:07;3.00;68.50
67557;DHT22;54387;53.526;49.300;2022-11-23T04:58:33;3.00;68.60
67557;DHT22;54387;53.526;49.300;2022-11-23T05:01:01;3.00;68.70
67557;DHT22;54387;53.526;49.300;2022-11-23T05:03:27;3.00;68.70
67557;DHT22;54387;53.526;49.300;2022-11-23T05:05:53;3.00;68.80
67557;DHT22;54387;53.526;49.300;2022-11-23T05:08:22;3.00;68.90
67557;DHT22;54387;53.526;49.300;2022-11-23T05:10:48;3.00;68.90
67557;DHT22;54387;53.526;49.300;2022-11-23T05:13:14;3.00;68.90
67557;DHT22;54387;53.526;49.300;2022-11-23T05:15:40;3.00;68.90
67557;DHT22;54387;53.526;49.300;2022-11-23T05:18:06;3.00;69.00
67557;DHT22;54387;53.526;49.300;2022-11-23T05:20:33;3.00;69.10
67557;DHT22;54387;53.526;49.300;2022-11-23T05:22:59;2.90;69.20
67557;DHT22;54387;53.526;49.300;2022-11-23T05:25:25;2.90;69.20
67557;DHT22;54387;53.526;49.300;2022-11-23T05:27:51;3.00;69.30
67557;DHT22;54387;53.526;49.300;2022-11-23T05:30:18;3.00;69.30
67557;DHT22;54387;53.526;49.300;2022-11-23T05:32:44;3.00;69.30
67557;DHT22;54387;53.526;49.300;2022-11-23T05:35:10;3.00;69.40
67557;DHT22;54387;53.526;49.300;2022-11-23T05:37:37;3.00;69.40
67557;DHT22;54387;53.526;49.300;2022-11-23T05:40:03;2.90;69.30
67557;DHT22;54387;53.526;49.300;2022-11-23T05:42:29;3.00;69.40
67557;DHT22;54387;53.526;49.300;2022-11-23T05:44:55;2.90;69.40
67557;DHT22;54387;53.526;49.300;2022-11-23T05:47:21;2.90;69.40
67557;DHT22;54387;53.526;49.300;2022-11-23T05:49:47;3.00;69.50
67557;DHT22;54387;53.526;49.300;2022-11-23T05:52:14;2.90;69.50
67557;DHT22;54387;53.526;49.300;2022-11-23T05:54:40;3.00;69.70
67557;DHT22;54387;53.526;49.300;2022-11-23T05:57:06;3.00;69.80
67557;DHT22;54387;53.526;49.300;2022-11-23T05:59:32;3.00;69.80
67557;DHT22;54387;53.526;49.300;2022-11-23T06:01:58;3.00;69.80
67557;DHT22;54387;53.526;49.300;2022-11-23T06:04:24;3.10;69.90
67557;DHT22;54387;53.526;49.300;2022-11-23T06:06:51;3.10;69.90
67557;DHT22;54387;53.526;49.300;2022-11-23T06:09:19;3.10;69.90
67557;DHT22;54387;53.526;49.300;2022-11-23T06:11:45;3.10;70.00
67557;DHT22;54387;53.526;49.300;2022-11-23T06:14:13;3.10;70.00
67557;DHT22;54387;53.526;49.300;2022-11-23T06:16:39;3.10;70.10
67557;DHT22;54387;53.526;49.300;2022-11-23T06:19:05;3.10;70.10
67557;DHT22;54387;53.526;49.300;2022-11-23T06:21:31;3.20;70.20
67557;DHT22;54387;53.526;49.300;2022-11-23T06:23:57;3.20;70.30
67557;DHT22;54387;53.526;49.300;2022-11-23T06:26:24;3.30;70.30
67557;DHT22;54387;53.526;49.300;2022-11-23T06:28:50;3.30;70.20
67557;DHT22;54387;53.526;49.300;2022-11-23T06:31:16;3.30;70.00
67557;DHT22;54387;53.526;49.300;2022-11-23T06:33:42;3.30;70.10
67557;DHT22;54387;53.526;49.300;2022-11-23T06:36:08;3.30;70.20
67557;DHT22;54387;53.526;49.300;2022-11-23T06:38:35;3.30;70.20
67557;DHT22;54387;53.526;49.300;2022-11-23T06:41:01;3.40;70.20
67557;DHT22;54387;53.526;49.300;2022-11-23T06:43:27;3.40;70.30
67557;DHT22;54387;53.526;49.300;2022-11-23T06:45:54;3.40;70.40
67557;DHT22;54387;53.526;49.300;2022-11-23T06:48:20;3.50;70.40
67557;DHT22;54387;53.526;49.300;2022-11-23T06:50:46;3.50;70.30
67557;DHT22;54387;53.526;49.300;2022-11-23T06:53:12;3.60;70.30
67557;DHT22;54387;53.526;49.300;2022-11-23T06:55:38;3.70;70.30
67557;DHT22;54387;53.526;49.300;2022-11-23T06:58:05;3.80;70.30
67557;DHT22;54387;53.526;49.300;2022-11-23T07:00:31;3.90;70.30
67557;DHT22;54387;53.526;49.300;2022-11-23T07:02:57;3.90;70.20
67557;DHT22;54387;53.526;49.300;2022-11-23T07:05:30;4.00;70.20
67557;DHT22;54387;53.526;49.300;2022-11-23T07:07:56;4.10;70.20
67557;DHT22;54387;53.526;49.300;2022-11-23T07:10:22;4.10;70.10
67557;DHT22;54387;53.526;49.300;2022-11-23T07:12:50;4.20;70.00
67557;DHT22;54387;53.526;49.300;2022-11-23T07:15:16;4.20;70.20
67557;DHT22;54387;53.526;49.300;2022-11-23T07:17:42;4.20;69.70
67557;DHT22;54387;53.526;49.300;2022-11-23T07:20:10;4.20;69.70
67557;DHT22;54387;53.526;49.300;2022-11-23T07:22:36;4.20;69.80
67557;DHT22;54387;53.526;49.300;2022-11-23T07:25:03;4.30;69.90
67557;DHT22;54387;53.526;49.300;2022-11-23T07:27:29;4.40;69.90
67557;DHT22;54387;53.526;49.300;2022-11-23T07:29:55;4.40;69.60
67557;DHT22;54387;53.526;49.300;2022-11-23T07:32:21;4.40;69.40
67557;DHT22;54387;53.526;49.300;2022-11-23T07:34:50;4.40;69.40
67557;DHT22;54387;53.526;49.300;2022-11-23T07:37:16;4.30;69.20
67557;DHT22;54387;53.526;49.300;2022-11-23T07:39:42;4.30;69.30
67557;DHT22;54387;53.526;49.300;2022-11-23T07:42:10;4.20;69.30
67557;DHT22;54387;53.526;49.300;2022-11-23T07:44:36;4.20;69.40
67557;DHT22;54387;53.526;49.300;2022-11-23T07:47:02;4.10;69.30
67557;DHT22;54387;53.526;49.300;2022-11-23T07:49:29;4.10;69.40
67557;DHT22;54387;53.526;49.300;2022-11-23T07:51:55;4.10;69.40
67557;DHT22;54387;53.526;49.300;2022-11-23T07:54:21;4.10;69.60
67557;DHT22;54387;53.526;49.300;2022-11-23T07:56:47;4.10;69.70
67557;DHT22;54387;53.526;49.300;2022-11-23T07:59:18;4.20;69.50
67557;DHT22;54387;53.526;49.300;2022-11-23T08:01:44;4.20;69.60
67557;DHT22;54387;53.526;49.300;2022-11-23T08:04:10;4.20;69.50
67557;DHT22;54387;53.526;49.300;2022-11-23T08:06:36;4.20;69.60
67557;DHT22;54387;53.526;49.300;2022-11-23T08:09:02;4.20;69.60
67557;DHT22;54387;53.526;49.300;2022-11-23T08:11:28;4.20;69.60
67557;DHT22;54387;53.526;49.300;2022-11-23T08:13:54;4.20;69.60
67557;DHT22;54387;53.526;49.300;2022-11-23T08:16:20;4.20;69.60
67557;DHT22;54387;53.526;49.300;2022-11-23T08:18:46;4.20;69.60
67557;DHT22;54387;53.526;49.300;2022-11-23T08:21:15;4.20;69.70
67557;DHT22;54387;53.526;49.300;2022-11-23T08:23:41;4.20;69.90
67557;DHT22;54387;53.526;49.300;2022-11-23T08:26:07;4.10;70.10
67557;DHT22;54387;53.526;49.300;2022-11-23T08:28:33;4.10;70.20
67557;DHT22;54387;53.526;49.300;2022-11-23T08:31:04;4.10;70.30
67557;DHT22;54387;53.526;49.300;2022-11-23T08:33:30;4.10;70.50
67557;DHT22;54387;53.526;49.300;2022-11-23T08:35:56;4.10;70.50
67557;DHT22;54387;53.526;49.300;2022-11-23T08:38:41;4.10;70.50
67557;DHT22;54387;53.526;49.300;2022-11-23T08:41:08;4.20;70.60
67557;DHT22;54387;53.526;49.300;2022-11-23T08:43:34;4.20;70.50
67557;DHT22;54387;53.526;49.300;2022-11-23T08:46:00;4.20;70.60
67557;DHT22;54387;53.526;49.300;2022-11-23T08:48:30;4.30;70.70
67557;DHT22;54387;53.526;49.300;2022-11-23T08:50:57;4.30;70.50
67557;DHT22;54387;53.526;49.300;2022-11-23T08:53:23;4.30;70.40
67557;DHT22;54387;53.526;49.300;2022-11-23T08:55:49;4.30;70.30
67557;DHT22;54387;53.526;49.300;2022-11-23T08:58:15;4.30;70.30
67557;DHT22;54387;53.526;49.300;2022-11-23T09:00:41;4.30;70.40
67557;DHT22;54387;53.526;49.300;2022-11-23T09:03:07;4.30;70.40
67557;DHT22;54387;53.526;49.300;2022-11-23T09:05:35;4.40;70.60
67557;DHT22;54387;53.526;49.300;2022-11-23T09:08:04;4.40;70.60
67557;DHT22;54387;53.526;49.300;2022-11-23T09:10:30;4.50;70.50
67557;DHT22;54387;53.526;49.300;2022-11-23T09:13:12;4.50;70.50
67557;DHT22;54387;53.526;49.300;2022-11-23T09:15:38;4.60;70.50
67557;DHT22;54387;53.526;49.300;2022-11-23T09:18:04;4.70;70.50
67557;DHT22;54387;53.526;49.300;2022-11-23T09:20:31;4.70;70.20
67557;DHT22;54387;53.526;49.300;2022-11-23T09:22:57;4.60;70.10
67557;DHT22;54387;53.526;49.300;2022-11-23T09:25:23;4.60;70.30
67557;DHT22;54387;53.526;49.300;2022-11-23T09:27:52;4.50;70.30
67557;DHT22;54387;53.526;49.300;2022-11-23T09:30:21;4.40;70.30
67557;DHT22;54387;53.526;49.300;2022-11-23T09:32:47;4.40;70.30
67557;DHT22;54387;53.526;49.300;2022-11-23T09:35:13;4.40;70.60
67557;DHT22;54387;53.526;49.300;2022-11-23T09:37:42;4.50;70.80
67557;DHT22;54387;53.526;49.300;2022-11-23T09:40:11;4.60;70.80
67557;DHT22;54387;53.526;49.300;2022-11-23T09:50:23;4.80;70.60
67557;DHT22;54387;53.526;49.300;2022-11-23T09:52:51;4.90;70.70
67557;DHT22;54387;53.526;49.300;2022-11-23T09:55:20;5.00;70.60
67557;DHT22;54387;53.526;49.300;2022-11-23T09:57:49;5.10;70.60
67557;DHT22;54387;53.526;49.300;2022-11-23T10:00:17;5.10;70.50
67557;DHT22;54387;53.526;49.300;2022-11-23T10:02:44;5.10;70.20
67557;DHT22;54387;53.526;49.300;2022-11-23T10:05:21;5.10;70.30
67557;DHT22;54387;53.526;49.300;2022-11-23T10:08:01;5.00;69.90
67557;DHT22;54387;53.526;49.300;2022-11-23T10:10:36;5.00;70.20
67557;DHT22;54387;53.526;49.300;2022-11-23T10:22:57;5.00;70.10
67557;DHT22;54387;53.526;49.300;2022-11-23T10:25:24;5.00;70.20
67557;DHT22;54387;53.526;49.300;2022-11-23T10:27:52;5.00;70.10
67557;DHT22;54387;53.526;49.300;2022-11-23T10:30:19;5.00;70.00
67557;DHT22;54387;53.526;49.300;2022-11-23T10:32:57;5.00;69.70
67557;DHT22;54387;53.526;49.300;2022-11-23T10:35:30;5.00;69.90
67557;DHT22;54387;53.526;49.300;2022-11-23T10:41:23;4.90;69.90
67557;DHT22;54387;53.526;49.300;2022-11-23T10:43:25;4.90;70.00
67557;DHT22;54387;53.526;49.300;2022-11-23T10:46:20;4.90;69.90
67557;DHT22;54387;53.526;49.300;2022-11-23T10:48:39;4.90;69.80
67557;DHT22;54387;53.526;49.300;2022-11-23T10:54:01;4.90;69.90
67557;DHT22;54387;53.526;49.300;2022-11-23T10:56:28;4.80;69.80
67557;DHT22;54387;53.526;49.300;2022-11-23T10:58:55;4.90;69.90
67557;DHT22;54387;53.526;49.300;2022-11-23T11:01:22;4.80;69.70
67557;DHT22;54387;53.526;49.300;2022-11-23T11:03:50;4.90;69.80
67557;DHT22;54387;53.526;49.300;2022-11-23T11:06:26;4.90;69.70
67557;DHT22;54387;53.526;49.300;2022-11-23T11:08:53;4.80;69.70
67557;DHT22;54387;53.526;49.300;2022-11-23T11:11:21;4.80;69.70
67557;DHT22;54387;53.526;49.300;2022-11-23T11:13:47;4.70;69.70
67557;DHT22;54387;53.526;49.300;2022-11-23T11:16:35;4.70;69.90
67557;DHT22;54387;53.526;49.300;2022-11-23T11:21:59;4.70;70.10
67557;DHT22;54387;53.526;49.300;2022-11-23T11:24:43;4.70;70.20
67557;DHT22;54387;53.526;49.300;2022-11-23T11:27:16;4.70;70.20
67557;DHT22;54387;53.526;49.300;2022-11-23T11:32:12;4.80;70.30
67557;DHT22;54387;53.526;49.300;2022-11-23T11:34:42;4.80;70.40
67557;DHT22;54387;53.526;49.300;2022-11-23T11:42:12;4.80;70.20
67557;DHT22;54387;53.526;49.300;2022-11-23T11:44:39;4.80;70.20
67557;DHT22;54387;53.526;49.300;2022-11-23T11:49:52;4.80;70.20
67557;DHT22;54387;53.526;49.300;2022-11-23T11:52:20;4.80;70.30
67557;DHT22;54387;53.526;49.300;2022-11-23T11:55:32;4.80;70.30
67557;DHT22;54387;53.526;49.300;2022-11-23T11:57:41;4.70;70.30
67557;DHT22;54387;53.526;49.300;2022-11-23T12:00:17;4.70;70.30
67557;DHT22;54387;53.526;49.300;2022-11-23T12:02:48;4.70;70.50
67557;DHT22;54387;53.526;49.300;2022-11-23T12:05:35;4.70;70.40
67557;DHT22;54387;53.526;49.300;2022-11-23T12:10:49;4.70;70.50
67557;DHT22;54387;53.526;49.300;2022-11-23T12:13:16;4.70;70.50
67557;DHT22;54387;53.526;49.300;2022-11-23T12:15:44;4.70;70.50
67557;DHT22;54387;53.526;49.300;2022-11-23T12:21:00;4.80;70.70
67557;DHT22;54387;53.526;49.300;2022-11-23T12:23:36;4.90;70.70
67557;DHT22;54387;53.526;49.300;2022-11-23T12:26:07;4.90;70.60
67557;DHT22;54387;53.526;49.300;2022-11-23T12:33:39;4.90;71.00
67557;DHT22;54387;53.526;49.300;2022-11-23T12:36:17;4.90;70.50
67557;DHT22;54387;53.526;49.300;2022-11-23T12:41:17;4.80;70.70
67557;DHT22;54387;53.526;49.300;2022-11-23T12:49:10;4.90;70.70
67557;DHT22;54387;53.526;49.300;2022-11-23T12:54:12;4.90;70.60
67557;DHT22;54387;53.526;49.300;2022-11-23T12:59:37;4.90;70.50
67557;DHT22;54387;53.526;49.300;2022-11-23T13:02:07;4.80;70.40
67557;DHT22;54387;53.526;49.300;2022-11-23T13:15:00;4.70;70.70
67557;DHT22;54387;53.526;49.300;2022-11-23T13:22:44;4.60;70.70
67557;DHT22;54387;53.526;49.300;2022-11-23T13:30:22;4.50;70.90
67557;DHT22;54387;53.526;49.300;2022-11-23T13:42:52;4.40;71.00
67557;DHT22;54387;53.526;49.300;2022-11-23T13:50:30;4.30;71.10
67557;DHT22;54387;53.526;49.300;2022-11-23T13:52:56;4.40;71.10
67557;DHT22;54387;53.526;49.300;2022-11-23T13:55:29;4.30;71.20
67557;DHT22;54387;53.526;49.300;2022-11-23T14:00:44;4.30;71.30
67557;DHT22;54387;53.526;49.300;2022-11-23T14:05:56;4.30;71.30
67557;DHT22;54387;53.526;49.300;2022-11-23T14:08:24;4.30;71.30
67557;DHT22;54387;53.526;49.300;2022-11-23T14:10:50;4.30;71.40
67557;DHT22;54387;53.526;49.300;2022-11-23T14:13:21;4.30;71.30
67557;DHT22;54387;53.526;49.300;2022-11-23T14:15:56;4.30;71.40
67557;DHT22;54387;53.526;49.300;2022-11-23T14:21:13;4.30;71.60
67557;DHT22;54387;53.526;49.300;2022-11-23T14:23:56;4.30;71.60
67557;DHT22;54387;53.526;49.300;2022-11-23T14:42:07;4.30;72.00
67557;DHT22;54387;53.526;49.300;2022-11-23T14:44:35;4.30;72.00
67557;DHT22;54387;53.526;49.300;2022-11-23T14:47:03;4.30;72.00
67557;DHT22;54387;53.526;49.300;2022-11-23T14:49:30;4.30;72.00
67557;DHT22;54387;53.526;49.300;2022-11-23T14:51:56;4.30;72.00
67557;DHT22;54387;53.526;49.300;2022-11-23T14:54:22;4.40;72.10
67557;DHT22;54387;53.526;49.300;2022-11-23T14:56:50;4.40;72.20
67557;DHT22;54387;53.526;49.300;2022-11-23T14:59:26;4.40;72.00
67557;DHT22;54387;53.526;49.300;2022-11-23T15:01:57;4.40;71.90
67557;DHT22;54387;53.526;49.300;2022-11-23T15:04:28;4.50;72.00
67557;DHT22;54387;53.526;49.300;2022-11-23T15:07:05;4.50;72.00
67557;DHT22;54387;53.526;49.300;2022-11-23T15:09:43;4.50;72.00
67557;DHT22;54387;53.526;49.300;2022-11-23T15:12:19;4.60;71.90
67557;DHT22;54387;53.526;49.300;2022-11-23T15:14:46;4.60;71.80
67557;DHT22;54387;53.526;49.300;2022-11-23T15:17:13;4.60;71.80
67557;DHT22;54387;53.526;49.300;2022-11-23T15:19:39;4.60;71.90
67557;DHT22;54387;53.526;49.300;2022-11-23T15:22:16;4.60;71.90
67557;DHT22;54387;53.526;49.300;2022-11-23T15:24:44;4.60;71.80
67557;DHT22;54387;53.526;49.300;2022-11-23T15:27:14;4.60;71.90
67557;DHT22;54387;53.526;49.300;2022-11-23T15:29:51;4.60;71.90
67557;DHT22;54387;53.526;49.300;2022-11-23T15:32:22;4.60;71.90
67557;DHT22;54387;53.526;49.300;2022-11-23T15:34:48;4.60;71.90
67557;DHT22;54387;53.526;49.300;2022-11-23T15:37:15;4.70;71.90
67557;DHT22;54387;53.526;49.300;2022-11-23T15:39:41;4.60;71.80
67557;DHT22;54387;53.526;49.300;2022-11-23T15:42:16;4.60;71.80
67557;DHT22;54387;53.526;49.300;2022-11-23T15:44:42;4.60;71.80
67557;DHT22;54387;53.526;49.300;2022-11-23T15:47:22;4.60;71.90
67557;DHT22;54387;53.526;49.300;2022-11-23T15:49:49;4.60;72.00
67557;DHT22;54387;53.526;49.300;2022-11-23T15:52:16;4.60;72.00
67557;DHT22;54387;53.526;49.300;2022-11-23T15:54:43;4.60;72.10
67557;DHT22;54387;53.526;49.300;2022-11-23T15:57:14;4.60;72.10
67557;DHT22;54387;53.526;49.300;2022-11-23T15:59:49;4.60;72.20
67557;DHT22;54387;53.526;49.300;2022-11-23T16:02:22;4.50;72.10
67557;DHT22;54387;53.526;49.300;2022-11-23T16:05:02;4.50;72.00
67557;DHT22;54387;53.526;49.300;2022-11-23T16:07:29;4.50;72.10
67557;DHT22;54387;53.526;49.300;2022-11-23T16:12:31;4.40;72.20
67557;DHT22;54387;53.526;49.300;2022-11-23T16:15:28;4.40;72.30
67557;DHT22;54387;53.526;49.300;2022-11-23T16:17:47;4.40;72.50
67557;DHT22;54387;53.526;49.300;2022-11-23T16:20:13;4.40;72.40
67557;DHT22;54387;53.526;49.300;2022-11-23T16:22:40;4.40;72.40
67557;DHT22;54387;53.526;49.300;2022-11-23T16:27:58;4.40;72.40
67557;DHT22;54387;53.526;49.300;2022-11-23T16:30:26;4.50;72.50
67557;DHT22;54387;53.526;49.300;2022-11-23T16:32:52;4.40;72.40
67557;DHT22;54387;53.526;49.300;2022-11-23T16:35:19;4.40;72.40
67557;DHT22;54387;53.526;49.300;2022-11-23T16:37:45;4.40;72.50
67557;DHT22;54387;53.526;49.300;2022-11-23T16:40:12;4.50;72.50
67557;DHT22;54387;53.526;49.300;2022-11-23T16:42:39;4.50;72.60
67557;DHT22;54387;53.526;49.300;2022-11-23T16:45:05;4.50;72.50
67557;DHT22;54387;53.526;49.300;2022-11-23T16:47:31;4.50;72.60
67557;DHT22;54387;53.526;49.300;2022-11-23T16:50:04;4.50;72.50
67557;DHT22;54387;53.526;49.300;2022-11-23T16:52:31;4.50;72.40
67557;DHT22;54387;53.526;49.300;2022-11-23T16:54:57;4.50;72.50
67557;DHT22;54387;53.526;49.300;2022-11-23T16:57:29;4.40;72.50
67557;DHT22;54387;53.526;49.300;2022-11-23T16:59:58;4.50;72.50
67557;DHT22;54387;53.526;49.300;2022-11-23T17:02:26;4.40;72.60
67557;DHT22;54387;53.526;49.300;2022-11-23T17:04:52;4.30;72.70
67557;DHT22;54387;53.526;49.300;2022-11-23T17:07:18;4.30;72.80
67557;DHT22;54387;53.526;49.300;2022-11-23T17:09:44;4.30;72.80
67557;DHT22;54387;53.526;49.300;2022-11-23T17:12:14;4.30;72.90
67557;DHT22;54387;53.526;49.300;2022-11-23T17:14:55;4.30;73.00
67557;DHT22;54387;53.526;49.300;2022-11-23T17:17:21;4.30;72.90
67557;DHT22;54387;53.526;49.300;2022-11-23T17:19:48;4.30;72.80
67557;DHT22;54387;53.526;49.300;2022-11-23T17:22:15;4.30;73.00
67557;DHT22;54387;53.526;49.300;2022-11-23T17:24:41;4.30;72.90
67557;DHT22;54387;53.526;49.300;2022-11-23T17:27:11;4.30;73.00
67557;DHT22;54387;53.526;49.300;2022-11-23T17:29:38;4.30;72.90
67557;DHT22;54387;53.526;49.300;2022-11-23T17:32:07;4.30;72.80
67557;DHT22;54387;53.526;49.300;2022-11-23T17:34:34;4.30;72.90
67557;DHT22;54387;53.526;49.300;2022-11-23T17:37:00;4.30;72.90
67557;DHT22;54387;53.526;49.300;2022-11-23T17:39:26;4.40;72.90